Time;durP1;ratioP1;P1;durP2;ratioP2;P2;SDS_P1;SDS_P2;PMS_P1;PMS_P2;Temp;Humidity;BMP_temperature;BMP_pressure;BME280_temperature;BME280_humidity;BME280_pressure;Samples;Min_cycle;Max_cycle;Signal;HPM_P1;HPM_P2
2022/01/07 00:02:24;;;;;;;4.53;1.10;;;;;;;;;;5040042;28;20498;-57
2022/01/07 00:04:49;;;;;;;9.88;1.30;;;;;;;;;;5037972;28;20032;-57
2022/01/07 00:07:15;;;;;;;4.82;1.42;;;;;;;;;;5039282;28;20340;-56
2022/01/07 00:09:40;;;;;;;4.22;1.33;;;;;;;;;;5041492;28;20491;-57
2022/01/07 00:12:07;;;;;;;7.38;1.90;;;;;;;;;;5039001;28;20119;-58
2022/01/07 00:14:33;;;;;;;9.45;1.35;;;;;;;;;;5043000;28;20024;-58
2022/01/07 00:16:58;;;;;;;10.07;3.45;;;;;;;;;;5038172;28;20041;-57
2022/01/07 00:19:24;;;;;;;6.25;1.45;;;;;;;;;;5041269;28;20037;-56
2022/01/07 00:21:49;;;;;;;14.65;2.28;;;;;;;;;;5042498;28;20033;-56
2022/01/07 00:24:15;;;;;;;9.32;1.45;;;;;;;;;;5040678;28;20139;-57
2022/01/07 00:26:40;;;;;;;11.40;2.72;;;;;;;;;;5042591;28;20557;-57
2022/01/07 00:29:06;;;;;;;15.43;2.30;;;;;;;;;;5040906;28;20020;-58
2022/01/07 00:31:31;;;;;;;14.38;2.97;;;;;;;;;;5038970;28;20539;-57
2022/01/07 00:33:57;;;;;;;15.68;2.42;;;;;;;;;;5039387;28;20051;-56
2022/01/07 00:36:22;;;;;;;10.10;3.80;;;;;;;;;;5038723;28;20527;-57
2022/01/07 00:38:48;;;;;;;8.32;1.55;;;;;;;;;;5040003;28;20079;-56
2022/01/07 00:41:13;;;;;;;14.90;2.30;;;;;;;;;;5042531;28;20036;-57
2022/01/07 00:43:39;;;;;;;7.10;1.75;;;;;;;;;;5040624;28;20025;-56
2022/01/07 00:46:04;;;;;;;8.05;1.42;;;;;;;;;;5045067;28;20123;-57
2022/01/07 00:48:30;;;;;;;9.15;1.20;;;;;;;;;;5037906;28;20041;-58
2022/01/07 00:50:55;;;;;;;7.72;2.10;;;;;;;;;;5043148;28;20032;-57
2022/01/07 00:53:21;;;;;;;5.85;1.77;;;;;;;;;;5042819;28;20024;-56
2022/01/07 00:55:47;;;;;;;18.15;1.50;;;;;;;;;;5043536;28;20111;-57
2022/01/07 00:58:13;;;;;;;1.63;0.90;;;;;;;;;;5042821;28;20067;-57
2022/01/07 01:00:38;;;;;;;5.32;0.88;;;;;;;;;;5072926;28;20083;-56
2022/01/07 01:03:04;;;;;;;7.28;1.05;;;;;;;;;;5039948;28;20447;-57
2022/01/07 01:05:30;;;;;;;4.18;1.60;;;;;;;;;;5041678;28;20428;-57
2022/01/07 01:07:56;;;;;;;4.22;0.82;;;;;;;;;;5041969;28;20039;-56
2022/01/07 01:10:27;;;;;;;2.00;0.98;;;;;;;;;;5040755;28;20033;-56
2022/01/07 01:12:54;;;;;;;14.15;1.13;;;;;;;;;;5042592;28;20333;-57
2022/01/07 01:15:22;;;;;;;3.03;0.60;;;;;;;;;;5040964;28;20591;-57
2022/01/07 01:17:53;;;;;;;5.40;0.75;;;;;;;;;;5039860;28;20033;-58
2022/01/07 01:20:20;;;;;;;2.10;0.40;;;;;;;;;;5037121;28;20036;-57
2022/01/07 01:22:45;;;;;;;9.18;0.50;;;;;;;;;;5037701;28;20021;-58
2022/01/07 01:25:11;;;;;;;0.55;0.50;;;;;;;;;;5075718;28;20399;-57
2022/01/07 01:27:37;;;;;;;6.28;1.10;;;;;;;;;;5036641;28;20025;-57
2022/01/07 01:30:06;;;;;;;2.03;0.70;;;;;;;;;;5039453;28;20032;-57
2022/01/07 01:32:31;;;;;;;1.63;0.40;;;;;;;;;;5038702;28;20021;-56
2022/01/07 01:34:57;;;;;;;1.55;0.43;;;;;;;;;;5040706;28;20033;-56
2022/01/07 01:37:23;;;;;;;2.90;0.93;;;;;;;;;;5040442;28;20045;-57
2022/01/07 01:39:48;;;;;;;1.48;0.57;;;;;;;;;;5035242;28;20045;-57
2022/01/07 01:42:14;;;;;;;8.02;0.77;;;;;;;;;;5037124;28;20515;-57
2022/01/07 01:44:39;;;;;;;0.93;0.50;;;;;;;;;;5039437;28;20049;-55
2022/01/07 01:47:05;;;;;;;5.47;0.70;;;;;;;;;;5036248;28;20028;-57
2022/01/07 01:49:31;;;;;;;7.20;0.73;;;;;;;;;;5034789;28;20107;-57
2022/01/07 01:51:56;;;;;;;3.92;0.70;;;;;;;;;;5037541;28;20614;-57
2022/01/07 01:54:22;;;;;;;6.05;1.02;;;;;;;;;;5042488;28;20090;-57
2022/01/07 01:56:47;;;;;;;5.75;0.82;;;;;;;;;;5040785;28;20060;-56
2022/01/07 01:59:13;;;;;;;0.47;0.40;;;;;;;;;;5045799;28;20029;-56
2022/01/07 02:01:40;;;;;;;7.43;0.60;;;;;;;;;;5042012;28;20064;-57
2022/01/07 02:04:06;;;;;;;4.30;0.90;;;;;;;;;;5037124;28;20037;-57
2022/01/07 02:06:32;;;;;;;5.15;1.02;;;;;;;;;;5043264;28;20025;-57
2022/01/07 02:08:57;;;;;;;2.78;0.60;;;;;;;;;;5041885;28;20033;-57
2022/01/07 02:11:23;;;;;;;2.15;0.40;;;;;;;;;;5041991;28;20059;-58
2022/01/07 02:13:55;;;;;;;2.28;1.00;;;;;;;;;;5076498;28;20087;-58
2022/01/07 02:16:24;;;;;;;1.88;0.80;;;;;;;;;;5041949;28;20071;-57
2022/01/07 02:18:49;;;;;;;2.72;1.00;;;;;;;;;;5042730;28;20446;-56
2022/01/07 02:21:15;;;;;;;2.25;0.80;;;;;;;;;;5043198;28;20041;-57
2022/01/07 02:23:40;;;;;;;4.57;0.60;;;;;;;;;;5041388;28;20056;-57
2022/01/07 02:26:07;;;;;;;5.55;0.52;;;;;;;;;;5041550;28;20032;-57
2022/01/07 02:28:34;;;;;;;4.57;1.05;;;;;;;;;;5045031;28;20033;-58
2022/01/07 02:31:00;;;;;;;6.28;1.08;;;;;;;;;;5039813;28;20480;-57
2022/01/07 02:33:26;;;;;;;7.35;0.80;;;;;;;;;;5076522;28;20038;-58
2022/01/07 02:35:51;;;;;;;7.32;1.40;;;;;;;;;;5040360;28;20094;-56
2022/01/07 02:38:17;;;;;;;1.88;0.50;;;;;;;;;;5043931;28;20078;-57
2022/01/07 02:40:43;;;;;;;2.90;0.60;;;;;;;;;;5037900;28;20053;-57
2022/01/07 02:43:09;;;;;;;2.22;0.52;;;;;;;;;;5042725;28;20060;-55
2022/01/07 02:45:35;;;;;;;4.40;0.60;;;;;;;;;;5071964;28;20480;-56
2022/01/07 02:48:03;;;;;;;1.10;0.28;;;;;;;;;;5037877;28;20086;-58
2022/01/07 02:50:28;;;;;;;1.85;0.38;;;;;;;;;;5042587;28;20044;-58
2022/01/07 02:52:55;;;;;;;3.28;0.70;;;;;;;;;;5043934;28;20037;-58
2022/01/07 02:55:21;;;;;;;1.67;0.45;;;;;;;;;;5040309;28;20244;-56
2022/01/07 02:57:48;;;;;;;2.00;0.63;;;;;;;;;;5041153;28;20111;-57
2022/01/07 03:00:16;;;;;;;3.10;0.68;;;;;;;;;;5042656;28;20021;-54
2022/01/07 03:02:42;;;;;;;3.28;0.50;;;;;;;;;;5036897;28;20041;-56
2022/01/07 03:05:08;;;;;;;2.75;0.90;;;;;;;;;;5043236;28;20410;-57
2022/01/07 03:07:34;;;;;;;6.38;0.77;;;;;;;;;;5039964;28;20515;-57
2022/01/07 03:10:00;;;;;;;3.95;0.50;;;;;;;;;;5069444;28;20025;-57
2022/01/07 03:12:25;;;;;;;0.20;0.20;;;;;;;;;;5044294;28;20087;-58
2022/01/07 03:14:51;;;;;;;3.05;0.40;;;;;;;;;;5043266;28;20032;-57
2022/01/07 03:17:16;;;;;;;4.00;0.90;;;;;;;;;;5042967;28;20056;-57
2022/01/07 03:19:42;;;;;;;9.10;1.38;;;;;;;;;;5040500;28;20087;-58
2022/01/07 03:22:07;;;;;;;5.50;1.00;;;;;;;;;;5039422;28;20059;-57
2022/01/07 03:24:33;;;;;;;7.63;0.70;;;;;;;;;;5039559;28;20036;-58
2022/01/07 03:26:59;;;;;;;8.88;0.82;;;;;;;;;;5043069;28;20026;-57
2022/01/07 03:29:25;;;;;;;6.47;1.35;;;;;;;;;;5040538;28;20086;-57
2022/01/07 03:31:50;;;;;;;1.83;0.63;;;;;;;;;;5040077;28;20037;-56
2022/01/07 03:34:16;;;;;;;13.07;0.85;;;;;;;;;;5042630;28;20036;-54
2022/01/07 03:36:41;;;;;;;6.00;0.75;;;;;;;;;;5042020;28;20133;-55
2022/01/07 03:39:08;;;;;;;6.47;0.85;;;;;;;;;;5039719;28;20123;-56
2022/01/07 03:41:34;;;;;;;10.57;1.15;;;;;;;;;;5046131;28;20032;-57
2022/01/07 03:44:00;;;;;;;4.93;1.05;;;;;;;;;;5040507;28;20037;-57
2022/01/07 03:46:25;;;;;;;9.70;0.90;;;;;;;;;;5040193;28;20040;-56
2022/01/07 03:48:51;;;;;;;1.92;0.50;;;;;;;;;;5042646;28;20029;-56
2022/01/07 03:51:16;;;;;;;13.55;1.17;;;;;;;;;;5041487;28;20063;-57
2022/01/07 03:53:42;;;;;;;9.93;1.20;;;;;;;;;;5040179;28;20412;-58
2022/01/07 03:56:11;;;;;;;7.88;1.08;;;;;;;;;;5044214;28;20039;-57
2022/01/07 03:58:37;;;;;;;2.08;0.32;;;;;;;;;;5039407;28;20086;-57
2022/01/07 04:01:03;;;;;;;3.88;0.65;;;;;;;;;;5041802;28;20403;-57
2022/01/07 04:03:29;;;;;;;9.88;1.20;;;;;;;;;;5044516;28;20037;-55
2022/01/07 04:05:55;;;;;;;4.50;0.75;;;;;;;;;;5041906;28;20033;-56
2022/01/07 04:08:20;;;;;;;10.25;1.40;;;;;;;;;;5035880;28;20033;-56
2022/01/07 04:10:46;;;;;;;5.00;0.73;;;;;;;;;;5041210;28;20032;-57
2022/01/07 04:13:11;;;;;;;4.47;1.02;;;;;;;;;;5040018;28;20029;-57
2022/01/07 04:15:37;;;;;;;1.33;0.30;;;;;;;;;;5037461;28;20052;-57
2022/01/07 04:18:03;;;;;;;4.00;1.02;;;;;;;;;;5037901;28;20032;-57
2022/01/07 04:20:31;;;;;;;4.47;0.50;;;;;;;;;;5040689;28;20029;-56
2022/01/07 04:22:57;;;;;;;3.75;0.65;;;;;;;;;;5041076;28;20025;-57
2022/01/07 04:25:24;;;;;;;5.28;1.10;;;;;;;;;;5040468;28;20032;-57
2022/01/07 04:28:00;;;;;;;11.10;2.03;;;;;;;;;;5044428;28;20112;-57
2022/01/07 04:30:30;;;;;;;9.48;1.20;;;;;;;;;;5044749;28;20332;-57
2022/01/07 04:32:57;;;;;;;4.97;0.65;;;;;;;;;;5038689;28;20032;-57
2022/01/07 04:35:23;;;;;;;8.70;2.08;;;;;;;;;;5036983;28;20087;-56
2022/01/07 04:37:49;;;;;;;15.75;1.50;;;;;;;;;;5038618;28;20500;-58
2022/01/07 04:40:16;;;;;;;15.32;2.38;;;;;;;;;;5042856;28;20037;-57
2022/01/07 04:42:42;;;;;;;13.77;1.48;;;;;;;;;;5042366;28;20503;-57
2022/01/07 04:45:09;;;;;;;28.85;2.17;;;;;;;;;;5038393;28;20111;-56
2022/01/07 04:47:36;;;;;;;11.85;1.05;;;;;;;;;;5039162;28;20522;-58
2022/01/07 04:50:09;;;;;;;3.20;0.73;;;;;;;;;;5039931;28;20492;-56
2022/01/07 04:52:34;;;;;;;5.45;1.13;;;;;;;;;;5040339;28;20036;-57
2022/01/07 04:55:00;;;;;;;3.83;1.20;;;;;;;;;;5040568;28;20477;-57
2022/01/07 04:57:26;;;;;;;3.70;1.25;;;;;;;;;;5044636;28;20068;-57
2022/01/07 04:59:51;;;;;;;10.05;1.63;;;;;;;;;;5041519;28;20029;-57
2022/01/07 05:02:19;;;;;;;3.33;1.02;;;;;;;;;;5039053;28;20098;-58
2022/01/07 05:04:45;;;;;;;3.03;0.63;;;;;;;;;;5038078;28;20055;-57
2022/01/07 05:07:11;;;;;;;3.08;1.10;;;;;;;;;;5073726;28;20044;-57
2022/01/07 05:09:36;;;;;;;5.20;0.88;;;;;;;;;;5043080;28;20025;-57
2022/01/07 05:12:02;;;;;;;8.68;0.88;;;;;;;;;;5039393;28;23120;-57
2022/01/07 05:14:28;;;;;;;11.05;0.88;;;;;;;;;;5049679;28;20578;-58
2022/01/07 05:16:53;;;;;;;8.48;0.80;;;;;;;;;;5038544;28;20044;-58
2022/01/07 05:19:19;;;;;;;7.15;0.40;;;;;;;;;;5040684;28;20033;-58
2022/01/07 05:21:44;;;;;;;8.73;1.10;;;;;;;;;;5039284;28;20247;-58
2022/01/07 05:24:10;;;;;;;4.30;0.63;;;;;;;;;;5043414;28;20030;-58
2022/01/07 05:26:35;;;;;;;3.22;0.40;;;;;;;;;;5043803;28;20028;-58
2022/01/07 05:29:01;;;;;;;10.10;1.10;;;;;;;;;;5039906;28;20519;-58
2022/01/07 05:31:27;;;;;;;3.80;0.60;;;;;;;;;;5045808;28;20035;-57
2022/01/07 05:33:54;;;;;;;3.50;0.73;;;;;;;;;;5044727;28;20064;-57
2022/01/07 05:36:20;;;;;;;2.13;0.43;;;;;;;;;;5040624;28;20032;-57
2022/01/07 05:38:46;;;;;;;1.88;0.65;;;;;;;;;;5045243;28;20045;-57
2022/01/07 05:41:13;;;;;;;1.08;0.40;;;;;;;;;;5045317;28;20028;-57
2022/01/07 05:43:38;;;;;;;6.30;0.75;;;;;;;;;;5045714;28;20032;-57
2022/01/07 05:46:04;;;;;;;3.25;0.65;;;;;;;;;;5045926;28;20041;-57
2022/01/07 05:48:30;;;;;;;3.33;0.68;;;;;;;;;;5042586;28;20026;-58
2022/01/07 05:50:55;;;;;;;6.82;0.50;;;;;;;;;;5047331;28;20609;-57
2022/01/07 05:53:21;;;;;;;3.17;0.57;;;;;;;;;;5039417;28;20153;-57
2022/01/07 05:55:46;;;;;;;8.60;1.27;;;;;;;;;;5046692;28;20133;-57
2022/01/07 05:58:12;;;;;;;3.60;0.55;;;;;;;;;;5040683;28;20406;-56
2022/01/07 06:00:38;;;;;;;6.90;1.05;;;;;;;;;;5046693;28;20341;-57
2022/01/07 06:03:03;;;;;;;1.10;0.32;;;;;;;;;;5047363;28;20131;-56
2022/01/07 06:05:29;;;;;;;5.80;0.88;;;;;;;;;;5044495;28;20431;-57
2022/01/07 06:07:54;;;;;;;2.08;0.35;;;;;;;;;;5045603;28;20025;-57
2022/01/07 06:10:20;;;;;;;12.43;1.77;;;;;;;;;;5046881;28;20113;-57
2022/01/07 06:12:45;;;;;;;6.07;0.57;;;;;;;;;;5039754;28;20040;-57
2022/01/07 06:15:11;;;;;;;3.22;0.60;;;;;;;;;;5041279;28;20032;-57
2022/01/07 06:17:37;;;;;;;2.95;0.60;;;;;;;;;;5045292;28;20074;-57
2022/01/07 06:20:07;;;;;;;6.43;0.73;;;;;;;;;;5038360;28;20052;-57
2022/01/07 06:22:34;;;;;;;5.60;1.83;;;;;;;;;;5044733;28;20036;-57
2022/01/07 06:25:00;;;;;;;5.30;1.10;;;;;;;;;;5042587;28;20039;-57
2022/01/07 06:27:25;;;;;;;7.25;0.75;;;;;;;;;;5040983;28;20467;-57
2022/01/07 06:29:51;;;;;;;2.08;0.38;;;;;;;;;;5045216;28;20103;-57
2022/01/07 06:32:16;;;;;;;4.38;2.45;;;;;;;;;;5039490;28;20048;-56
2022/01/07 06:34:42;;;;;;;9.63;0.70;;;;;;;;;;5044163;28;20037;-57
2022/01/07 06:37:07;;;;;;;37.08;1.40;;;;;;;;;;5043910;28;20049;-57
2022/01/07 06:39:34;;;;;;;1.63;0.32;;;;;;;;;;5043410;28;20393;-57
2022/01/07 06:42:00;;;;;;;4.93;0.47;;;;;;;;;;5044973;28;20537;-56
2022/01/07 06:44:26;;;;;;;14.00;0.93;;;;;;;;;;5044512;28;20036;-56
2022/01/07 06:46:52;;;;;;;9.32;0.80;;;;;;;;;;5045737;28;20029;-56
2022/01/07 06:49:18;;;;;;;10.88;0.98;;;;;;;;;;5036921;28;20025;-56
2022/01/07 06:51:44;;;;;;;5.03;0.60;;;;;;;;;;5042435;28;20038;-57
2022/01/07 06:54:11;;;;;;;9.05;2.42;;;;;;;;;;5047554;28;20493;-56
2022/01/07 06:56:43;;;;;;;9.15;0.73;;;;;;;;;;5044020;28;20035;-57
2022/01/07 06:59:12;;;;;;;5.50;0.70;;;;;;;;;;5038992;28;20140;-57
2022/01/07 07:01:41;;;;;;;12.55;1.30;;;;;;;;;;5037992;28;20514;-56
2022/01/07 07:04:07;;;;;;;4.32;1.30;;;;;;;;;;5040358;28;20040;-57
2022/01/07 07:06:32;;;;;;;2.92;0.75;;;;;;;;;;5050359;28;20035;-57
2022/01/07 07:08:58;;;;;;;4.30;1.00;;;;;;;;;;5043569;28;20506;-55
2022/01/07 07:11:23;;;;;;;4.93;0.73;;;;;;;;;;5044121;28;20033;-57
2022/01/07 07:13:49;;;;;;;5.25;0.95;;;;;;;;;;5040426;28;20043;-56
2022/01/07 07:16:15;;;;;;;10.25;1.17;;;;;;;;;;5043030;28;20035;-56
2022/01/07 07:18:41;;;;;;;6.55;0.73;;;;;;;;;;5043117;28;20045;-57
2022/01/07 07:21:06;;;;;;;18.25;1.52;;;;;;;;;;5043475;28;20420;-57
2022/01/07 07:23:32;;;;;;;5.93;0.75;;;;;;;;;;5045901;28;20120;-57
2022/01/07 07:25:57;;;;;;;5.15;0.73;;;;;;;;;;5039970;28;20041;-57
2022/01/07 07:28:23;;;;;;;5.25;0.50;;;;;;;;;;5044436;28;20032;-57
2022/01/07 07:30:50;;;;;;;5.40;0.63;;;;;;;;;;5043986;28;20037;-57
2022/01/07 07:38:12;;;;;;;6.72;0.98;;;;;;;;;;5037430;28;20045;-57
2022/01/07 07:40:38;;;;;;;14.73;2.38;;;;;;;;;;5042797;28;20024;-57
2022/01/07 07:43:04;;;;;;;12.40;1.20;;;;;;;;;;5038612;28;20424;-58
2022/01/07 07:45:29;;;;;;;7.97;1.30;;;;;;;;;;5044722;28;20043;-57
2022/01/07 07:47:55;;;;;;;9.07;1.92;;;;;;;;;;5043300;28;20127;-57
2022/01/07 07:50:20;;;;;;;11.98;1.00;;;;;;;;;;5038640;28;20033;-57
2022/01/07 07:52:46;;;;;;;11.40;1.40;;;;;;;;;;5078340;28;20040;-56
2022/01/07 07:55:12;;;;;;;2.63;0.65;;;;;;;;;;5038799;28;20037;-57
2022/01/07 07:57:37;;;;;;;9.05;2.25;;;;;;;;;;5043411;28;20488;-57
2022/01/07 08:00:05;;;;;;;24.67;2.63;;;;;;;;;;5036380;28;20025;-57
2022/01/07 08:02:31;;;;;;;14.10;1.95;;;;;;;;;;5042514;28;20381;-57
2022/01/07 08:04:57;;;;;;;19.38;1.60;;;;;;;;;;5039818;28;20053;-55
2022/01/07 08:07:22;;;;;;;16.60;2.13;;;;;;;;;;5037561;28;20057;-56
2022/01/07 08:09:50;;;;;;;7.10;1.63;;;;;;;;;;5041330;28;20064;-55
2022/01/07 08:12:19;;;;;;;28.13;2.22;;;;;;;;;;5049262;28;20037;-55
2022/01/07 08:17:29;;;;;;;6.82;1.48;;;;;;;;;;5040141;28;20577;-56
2022/01/07 08:19:55;;;;;;;6.30;1.38;;;;;;;;;;5040588;28;20196;-55
2022/01/07 08:22:20;;;;;;;5.57;1.90;;;;;;;;;;5043450;28;20025;-55
2022/01/07 08:24:46;;;;;;;13.13;2.33;;;;;;;;;;5035153;28;20033;-57
2022/01/07 08:27:11;;;;;;;12.98;2.10;;;;;;;;;;5038815;28;20540;-56
2022/01/07 08:29:39;;;;;;;17.15;1.65;;;;;;;;;;5045274;28;20128;-56
2022/01/07 08:34:56;;;;;;;8.68;1.55;;;;;;;;;;5038525;28;20780;-55
2022/01/07 08:37:26;;;;;;;12.20;1.48;;;;;;;;;;5043423;28;20330;-56
2022/01/07 08:39:54;;;;;;;11.32;2.83;;;;;;;;;;5045257;28;20083;-55
2022/01/07 08:42:24;;;;;;;8.70;1.48;;;;;;;;;;5042539;28;20041;-55
2022/01/07 08:44:52;;;;;;;14.85;1.50;;;;;;;;;;5041221;28;20059;-55
2022/01/07 08:47:22;;;;;;;17.55;2.50;;;;;;;;;;5044657;28;20487;-56
2022/01/07 08:49:49;;;;;;;7.75;0.95;;;;;;;;;;5043915;28;20565;-56
2022/01/07 08:52:15;;;;;;;14.25;1.70;;;;;;;;;;5043343;28;20025;-56
2022/01/07 08:54:41;;;;;;;17.30;2.08;;;;;;;;;;5041329;28;20044;-56
2022/01/07 08:57:06;;;;;;;12.25;1.65;;;;;;;;;;5048850;28;20436;-56
2022/01/07 08:59:32;;;;;;;15.75;2.25;;;;;;;;;;5044427;28;20600;-56
2022/01/07 09:01:57;;;;;;;12.98;1.02;;;;;;;;;;5040741;28;20025;-56
2022/01/07 09:04:23;;;;;;;13.30;1.85;;;;;;;;;;5042839;28;20056;-56
2022/01/07 09:06:48;;;;;;;16.52;1.35;;;;;;;;;;5043149;28;20119;-56
2022/01/07 09:09:14;;;;;;;6.88;0.82;;;;;;;;;;5042703;28;20029;-57
2022/01/07 09:11:40;;;;;;;10.93;1.00;;;;;;;;;;5044495;28;20033;-56
2022/01/07 09:14:05;;;;;;;17.15;1.70;;;;;;;;;;5043067;28;20558;-57
2022/01/07 09:16:31;;;;;;;4.78;1.15;;;;;;;;;;5050851;28;20494;-55
2022/01/07 09:18:56;;;;;;;9.60;1.98;;;;;;;;;;5044552;28;20476;-56
2022/01/07 09:21:22;;;;;;;9.68;1.13;;;;;;;;;;5039474;28;20607;-55
2022/01/07 09:23:48;;;;;;;6.53;1.92;;;;;;;;;;5041487;28;20040;-54
2022/01/07 09:26:14;;;;;;;6.15;1.58;;;;;;;;;;5038302;28;20111;-56
2022/01/07 09:28:40;;;;;;;3.75;1.13;;;;;;;;;;5044417;28;20120;-57
2022/01/07 09:31:05;;;;;;;18.75;3.42;;;;;;;;;;5040898;28;20040;-57
2022/01/07 09:33:32;;;;;;;23.10;2.28;;;;;;;;;;5037409;28;20033;-56
2022/01/07 09:35:57;;;;;;;10.25;2.28;;;;;;;;;;5042032;28;20033;-56
2022/01/07 09:38:25;;;;;;;5.97;1.92;;;;;;;;;;5039970;28;20049;-56
2022/01/07 09:40:51;;;;;;;9.85;1.92;;;;;;;;;;5043284;28;20733;-56
2022/01/07 09:43:17;;;;;;;18.52;2.22;;;;;;;;;;5043094;28;20044;-56
2022/01/07 09:45:42;;;;;;;7.70;1.30;;;;;;;;;;5044482;28;20036;-56
2022/01/07 09:48:08;;;;;;;9.82;1.50;;;;;;;;;;5046414;28;20033;-57
2022/01/07 09:50:35;;;;;;;24.52;4.13;;;;;;;;;;5040863;28;20024;-56
2022/01/07 09:53:09;;;;;;;25.40;2.22;;;;;;;;;;5035605;28;20064;-57
2022/01/07 09:55:35;;;;;;;16.73;2.00;;;;;;;;;;5048776;28;20021;-54
2022/01/07 09:58:02;;;;;;;21.85;2.60;;;;;;;;;;5036334;28;20418;-54
2022/01/07 10:00:37;;;;;;;6.20;0.85;;;;;;;;;;5040996;28;20210;-55
2022/01/07 10:03:09;;;;;;;7.15;1.40;;;;;;;;;;5043239;28;20032;-56
2022/01/07 10:05:52;;;;;;;12.90;1.92;;;;;;;;;;5044179;28;20590;-56
2022/01/07 10:08:27;;;;;;;8.70;2.03;;;;;;;;;;5039826;28;20037;-57
2022/01/07 10:11:14;;;;;;;14.32;1.58;;;;;;;;;;5042651;28;20270;-56
2022/01/07 10:13:44;;;;;;;15.05;2.47;;;;;;;;;;5041753;28;20033;-57
2022/01/07 10:16:15;;;;;;;18.20;1.73;;;;;;;;;;5046144;28;20048;-57
2022/01/07 10:18:41;;;;;;;16.83;2.03;;;;;;;;;;5046805;28;20025;-57
2022/01/07 10:21:08;;;;;;;8.18;1.92;;;;;;;;;;5046460;28;20043;-56
2022/01/07 10:23:34;;;;;;;12.77;2.80;;;;;;;;;;5049105;28;20021;-55
2022/01/07 10:26:00;;;;;;;26.55;2.35;;;;;;;;;;5045583;28;20492;-55
2022/01/07 10:28:31;;;;;;;14.20;1.58;;;;;;;;;;5038897;28;20622;-57
2022/01/07 10:30:59;;;;;;;18.75;3.15;;;;;;;;;;5045898;28;20029;-55
2022/01/07 10:33:34;;;;;;;14.10;1.98;;;;;;;;;;5046325;28;20033;-56
2022/01/07 10:36:06;;;;;;;6.72;1.83;;;;;;;;;;5046975;28;20043;-56
2022/01/07 10:38:32;;;;;;;9.03;2.07;;;;;;;;;;5044493;28;20154;-55
2022/01/07 10:41:01;;;;;;;13.40;2.50;;;;;;;;;;5044680;28;20495;-56
2022/01/07 10:43:34;;;;;;;17.20;3.63;;;;;;;;;;5043660;28;20045;-56
2022/01/07 10:46:12;;;;;;;11.30;2.05;;;;;;;;;;5043646;28;20025;-54
2022/01/07 10:48:40;;;;;;;8.48;1.65;;;;;;;;;;5043028;28;20016;-56
2022/01/07 10:51:14;;;;;;;14.00;1.65;;;;;;;;;;5048126;28;20111;-55
2022/01/07 10:53:41;;;;;;;8.35;1.83;;;;;;;;;;5043391;28;20036;-55
2022/01/07 10:56:18;;;;;;;8.35;1.80;;;;;;;;;;5044217;28;20495;-54
2022/01/07 10:58:43;;;;;;;19.27;2.15;;;;;;;;;;5042276;28;20438;-54
2022/01/07 11:01:31;;;;;;;7.57;1.45;;;;;;;;;;5045745;28;20352;-53
2022/01/07 11:03:59;;;;;;;10.30;1.70;;;;;;;;;;5044395;28;20037;-54
2022/01/07 11:06:26;;;;;;;16.80;2.00;;;;;;;;;;5046661;28;20041;-55
2022/01/07 11:08:54;;;;;;;5.35;1.50;;;;;;;;;;5033221;28;20033;-55
2022/01/07 11:11:21;;;;;;;9.00;1.48;;;;;;;;;;5042826;28;20043;-55
2022/01/07 11:13:46;;;;;;;11.30;1.45;;;;;;;;;;5046702;28;20645;-53
2022/01/07 11:16:13;;;;;;;8.70;1.42;;;;;;;;;;5046045;28;20033;-54
2022/01/07 11:18:43;;;;;;;6.07;1.25;;;;;;;;;;5036396;28;20499;-54
2022/01/07 11:21:10;;;;;;;10.18;1.27;;;;;;;;;;5041121;28;20033;-53
2022/01/07 11:23:37;;;;;;;2.60;0.75;;;;;;;;;;5045629;28;20037;-53
2022/01/07 11:26:08;;;;;;;5.03;1.33;;;;;;;;;;5039919;28;20040;-54
2022/01/07 11:28:35;;;;;;;2.85;0.80;;;;;;;;;;5043023;28;20032;-56
2022/01/07 11:31:05;;;;;;;8.13;1.13;;;;;;;;;;5038627;28;20519;-56
2022/01/07 11:33:32;;;;;;;2.25;0.77;;;;;;;;;;5045242;28;20044;-56
2022/01/07 11:35:58;;;;;;;3.33;1.63;;;;;;;;;;5036531;28;20190;-55
2022/01/07 11:38:44;;;;;;;6.38;1.80;;;;;;;;;;5044923;28;20644;-55
2022/01/07 11:41:31;;;;;;;13.20;1.55;;;;;;;;;;5049677;28;20047;-55
2022/01/07 11:44:13;;;;;;;10.60;1.70;;;;;;;;;;5034067;28;20443;-52
2022/01/07 11:46:39;;;;;;;8.50;2.05;;;;;;;;;;5046746;28;20123;-55
2022/01/07 11:49:05;;;;;;;6.97;1.67;;;;;;;;;;5042676;28;20481;-55
2022/01/07 11:51:40;;;;;;;12.73;3.20;;;;;;;;;;5041841;28;20033;-55
2022/01/07 11:54:09;;;;;;;16.77;4.15;;;;;;;;;;5041106;28;20035;-56
2022/01/07 11:56:36;;;;;;;16.65;5.50;;;;;;;;;;5043129;28;20025;-56
2022/01/07 11:59:19;;;;;;;19.88;4.85;;;;;;;;;;5049201;28;20031;-56
2022/01/07 12:01:56;;;;;;;15.18;4.70;;;;;;;;;;5042491;28;20044;-56
2022/01/07 12:04:29;;;;;;;18.92;4.60;;;;;;;;;;5044522;28;20396;-55
2022/01/07 12:06:57;;;;;;;12.30;4.03;;;;;;;;;;5038885;28;20025;-56
2022/01/07 12:09:30;;;;;;;9.57;2.78;;;;;;;;;;5042024;28;20032;-56
2022/01/07 12:12:02;;;;;;;4.22;1.95;;;;;;;;;;5038286;28;20136;-54
2022/01/07 12:14:33;;;;;;;9.83;3.17;;;;;;;;;;5042451;28;20048;-55
2022/01/07 12:17:01;;;;;;;5.45;2.40;;;;;;;;;;5044575;28;20040;-56
2022/01/07 12:19:35;;;;;;;11.00;2.35;;;;;;;;;;5044069;28;20045;-56
2022/01/07 12:22:02;;;;;;;13.63;3.20;;;;;;;;;;5046493;28;20036;-55
2022/01/07 12:24:30;;;;;;;4.22;1.52;;;;;;;;;;5040357;28;20102;-55
2022/01/07 12:27:06;;;;;;;6.90;2.22;;;;;;;;;;5072731;28;20029;-56
2022/01/07 12:29:37;;;;;;;4.60;1.58;;;;;;;;;;5043334;28;20484;-56
2022/01/07 12:32:04;;;;;;;6.13;1.15;;;;;;;;;;5051912;28;20070;-56
2022/01/07 12:34:35;;;;;;;4.25;1.30;;;;;;;;;;5043585;28;20115;-56
2022/01/07 12:37:05;;;;;;;7.95;1.95;;;;;;;;;;5047651;28;20112;-56
2022/01/07 12:39:33;;;;;;;4.03;1.80;;;;;;;;;;5040924;28;20032;-56
2022/01/07 12:41:59;;;;;;;5.03;2.05;;;;;;;;;;5040848;28;20098;-55
2022/01/07 12:44:25;;;;;;;5.95;1.98;;;;;;;;;;5041459;28;20029;-56
2022/01/07 12:46:54;;;;;;;7.35;2.53;;;;;;;;;;5039537;28;20443;-57
2022/01/07 12:49:20;;;;;;;6.53;2.40;;;;;;;;;;5035991;28;20024;-55
2022/01/07 12:52:22;;;;;;;4.88;1.45;;;;;;;;;;5042760;28;20518;-57
2022/01/07 12:54:53;;;;;;;7.57;2.10;;;;;;;;;;5035237;28;20036;-56
2022/01/07 12:57:28;;;;;;;5.07;2.40;;;;;;;;;;5039101;28;20090;-56
2022/01/07 13:00:24;;;;;;;3.97;1.90;;;;;;;;;;5033469;28;20037;-57
2022/01/07 13:02:55;;;;;;;3.17;1.73;;;;;;;;;;5042854;28;20028;-56
2022/01/07 13:05:30;;;;;;;9.13;2.25;;;;;;;;;;5040652;28;20060;-55
2022/01/07 13:08:12;;;;;;;7.90;2.20;;;;;;;;;;5043462;28;20055;-57
2022/01/07 13:10:42;;;;;;;6.90;3.25;;;;;;;;;;5041062;28;20037;-57
2022/01/07 13:13:13;;;;;;;6.95;1.58;;;;;;;;;;5044174;28;20090;-56
2022/01/07 13:15:40;;;;;;;6.40;2.20;;;;;;;;;;5040546;28;20221;-55
2022/01/07 13:18:23;;;;;;;5.03;1.98;;;;;;;;;;5039608;28;20163;-56
2022/01/07 13:20:52;;;;;;;3.72;1.73;;;;;;;;;;5040596;28;20036;-56
2022/01/07 13:23:19;;;;;;;5.18;1.70;;;;;;;;;;5043951;28;20041;-56
2022/01/07 13:25:45;;;;;;;4.70;1.85;;;;;;;;;;5041690;28;20112;-57
2022/01/07 13:28:10;;;;;;;2.25;1.38;;;;;;;;;;5039078;28;20147;-57
2022/01/07 13:30:38;;;;;;;5.15;1.70;;;;;;;;;;5037665;28;20314;-57
2022/01/07 13:33:06;;;;;;;3.97;1.67;;;;;;;;;;5041441;28;20561;-55
2022/01/07 13:35:31;;;;;;;2.55;1.63;;;;;;;;;;5053265;28;20084;-57
2022/01/07 13:37:57;;;;;;;3.47;1.67;;;;;;;;;;5039647;28;20064;-57
2022/01/07 13:40:30;;;;;;;1.13;0.77;;;;;;;;;;5039547;28;20044;-56
2022/01/07 13:43:29;;;;;;;1.95;0.85;;;;;;;;;;5043460;28;20028;-56
2022/01/07 13:46:11;;;;;;;2.50;1.63;;;;;;;;;;5027991;28;20116;-55
2022/01/07 13:49:11;;;;;;;2.47;1.40;;;;;;;;;;5041660;28;20492;-56
2022/01/07 13:51:38;;;;;;;3.25;1.40;;;;;;;;;;5037375;28;20052;-56
2022/01/07 13:54:15;;;;;;;3.72;1.40;;;;;;;;;;5043467;28;20583;-56
2022/01/07 13:56:46;;;;;;;7.38;1.50;;;;;;;;;;5042638;28;20040;-56
2022/01/07 13:59:14;;;;;;;3.42;1.35;;;;;;;;;;5043956;28;20021;-55
2022/01/07 14:02:01;;;;;;;6.10;1.73;;;;;;;;;;5041768;28;20028;-56
2022/01/07 14:04:39;;;;;;;3.30;1.75;;;;;;;;;;5045596;28;20508;-52
2022/01/07 14:07:30;;;;;;;6.72;2.25;;;;;;;;;;5040816;28;20495;-57
2022/01/07 14:10:10;;;;;;;5.55;2.22;;;;;;;;;;5041977;28;20032;-55
2022/01/07 14:12:44;;;;;;;4.15;2.05;;;;;;;;;;5044207;28;20818;-56
2022/01/07 14:15:11;;;;;;;5.88;1.63;;;;;;;;;;5056969;28;20558;-56
2022/01/07 14:17:39;;;;;;;8.25;2.30;;;;;;;;;;5037932;28;20269;-58
2022/01/07 14:20:06;;;;;;;5.43;2.47;;;;;;;;;;5037200;28;20057;-55
2022/01/07 14:22:38;;;;;;;7.68;3.15;;;;;;;;;;5045764;28;20041;-56
2022/01/07 14:25:06;;;;;;;12.77;3.25;;;;;;;;;;5039643;28;20021;-55
2022/01/07 14:27:34;;;;;;;4.10;2.33;;;;;;;;;;5044906;28;20041;-55
2022/01/07 14:30:01;;;;;;;8.00;2.65;;;;;;;;;;5046767;28;20403;-55
2022/01/07 14:32:27;;;;;;;11.50;3.05;;;;;;;;;;5046378;28;20031;-53
2022/01/07 14:34:57;;;;;;;16.20;2.83;;;;;;;;;;5041969;28;20037;-56
2022/01/07 14:37:27;;;;;;;9.52;2.95;;;;;;;;;;5046417;28;20073;-56
2022/01/07 14:39:53;;;;;;;7.18;3.22;;;;;;;;;;5044010;28;20056;-54
2022/01/07 14:42:19;;;;;;;9.43;3.03;;;;;;;;;;5042961;28;20116;-55
2022/01/07 14:44:45;;;;;;;6.45;2.97;;;;;;;;;;5039111;28;20090;-52
2022/01/07 14:47:11;;;;;;;12.95;3.40;;;;;;;;;;5037756;28;20037;-55
2022/01/07 14:49:38;;;;;;;12.90;4.25;;;;;;;;;;5039835;28;20086;-53
2022/01/07 14:52:03;;;;;;;14.27;4.38;;;;;;;;;;5042860;28;20060;-53
2022/01/07 14:54:29;;;;;;;15.43;5.50;;;;;;;;;;5036934;28;20068;-54